sensor_id;sensor_type;location;lat;lon;timestamp;pressure;altitude;pressure_sealevel;temperature;humidity
70072;BME280;57434;42.794;23.302;2023-02-14T00:00:25;97100.81;;;-3.25;72.47
70072;BME280;57434;42.794;23.302;2023-02-14T00:01:27;97092.59;;;-3.25;72.15
70072;BME280;57434;42.794;23.302;2023-02-14T00:02:29;97098.56;;;-3.20;71.84
70072;BME280;57434;42.794;23.302;2023-02-14T00:03:31;97089.78;;;-3.29;71.74
70072;BME280;57434;42.794;23.302;2023-02-14T00:04:33;96980.69;;;-3.85;71.22
70072;BME280;57434;42.794;23.302;2023-02-14T00:05:35;97094.63;;;-3.19;71.10
70072;BME280;57434;42.794;23.302;2023-02-14T00:06:37;97111.38;;;-3.27;71.10
70072;BME280;57434;42.794;23.302;2023-02-14T00:07:39;96953.44;;;-4.20;71.62
70072;BME280;57434;42.794;23.302;2023-02-14T00:08:41;97109.72;;;-3.32;71.87
70072;BME280;57434;42.794;23.302;2023-02-14T00:09:43;97122.84;;;-3.22;71.54
70072;BME280;57434;42.794;23.302;2023-02-14T00:10:45;97039.50;;;-3.59;71.27
70072;BME280;57434;42.794;23.302;2023-02-14T00:11:47;97133.56;;;-3.13;71.15
70072;BME280;57434;42.794;23.302;2023-02-14T00:12:49;97094.97;;;-3.24;71.16
70072;BME280;57434;42.794;23.302;2023-02-14T00:13:51;97080.63;;;-3.36;71.03
70072;BME280;57434;42.794;23.302;2023-02-14T00:14:53;97092.59;;;-3.25;70.63
70072;BME280;57434;42.794;23.302;2023-02-14T00:15:55;97106.41;;;-3.18;70.82
70072;BME280;57434;42.794;23.302;2023-02-14T00:16:57;97109.06;;;-3.25;70.69
70072;BME280;57434;42.794;23.302;2023-02-14T00:17:59;97092.22;;;-3.47;70.89
70072;BME280;57434;42.794;23.302;2023-02-14T00:19:01;97019.31;;;-3.93;71.52
70072;BME280;57434;42.794;23.302;2023-02-14T00:20:03;97084.72;;;-3.50;71.42
70072;BME280;57434;42.794;23.302;2023-02-14T00:21:05;97119.78;;;-3.40;71.57
70072;BME280;57434;42.794;23.302;2023-02-14T00:22:06;97108.25;;;-3.49;71.71
70072;BME280;57434;42.794;23.302;2023-02-14T00:23:08;97073.38;;;-3.71;71.69
70072;BME280;57434;42.794;23.302;2023-02-14T00:24:16;97136.97;;;-3.43;71.84
70072;BME280;57434;42.794;23.302;2023-02-14T00:25:19;96984.84;;;-4.36;71.70
70072;BME280;57434;42.794;23.302;2023-02-14T00:26:20;97110.09;;;-3.56;72.11
70072;BME280;57434;42.794;23.302;2023-02-14T00:27:22;97109.00;;;-3.52;71.88
70072;BME280;57434;42.794;23.302;2023-02-14T00:28:24;96946.72;;;-4.45;71.65
70072;BME280;57434;42.794;23.302;2023-02-14T00:29:28;96829.72;;;-5.87;71.51
70072;BME280;57434;42.794;23.302;2023-02-14T00:30:31;96962.91;;;-4.59;71.73
70072;BME280;57434;42.794;23.302;2023-02-14T00:31:33;97090.94;;;-3.76;72.02
70072;BME280;57434;42.794;23.302;2023-02-14T00:32:40;97104.31;;;-3.70;72.26
70072;BME280;57434;42.794;23.302;2023-02-14T00:33:42;97104.22;;;-3.78;72.15
70072;BME280;57434;42.794;23.302;2023-02-14T00:34:44;97073.78;;;-3.92;71.62
70072;BME280;57434;42.794;23.302;2023-02-14T00:35:46;97095.66;;;-3.73;71.90
70072;BME280;57434;42.794;23.302;2023-02-14T00:36:48;97087.97;;;-3.86;72.16
70072;BME280;57434;42.794;23.302;2023-02-14T00:37:49;97140.06;;;-3.86;72.59
70072;BME280;57434;42.794;23.302;2023-02-14T00:38:51;97105.72;;;-3.80;72.74
70072;BME280;57434;42.794;23.302;2023-02-14T00:39:53;97097.16;;;-3.79;72.76
70072;BME280;57434;42.794;23.302;2023-02-14T00:40:55;97080.69;;;-3.79;72.42
70072;BME280;57434;42.794;23.302;2023-02-14T00:41:57;97107.69;;;-3.58;72.34
70072;BME280;57434;42.794;23.302;2023-02-14T00:42:59;97121.00;;;-3.60;72.34
70072;BME280;57434;42.794;23.302;2023-02-14T00:44:01;97104.47;;;-3.41;72.18
70072;BME280;57434;42.794;23.302;2023-02-14T00:45:03;97107.09;;;-3.48;72.25
70072;BME280;57434;42.794;23.302;2023-02-14T00:46:05;97112.69;;;-3.41;72.86
70072;BME280;57434;42.794;23.302;2023-02-14T00:47:07;97096.13;;;-3.48;73.51
70072;BME280;57434;42.794;23.302;2023-02-14T00:48:09;97113.00;;;-3.46;73.83
70072;BME280;57434;42.794;23.302;2023-02-14T00:49:11;97103.81;;;-3.34;73.98
70072;BME280;57434;42.794;23.302;2023-02-14T00:50:12;97105.16;;;-3.24;73.68
70072;BME280;57434;42.794;23.302;2023-02-14T00:51:15;97069.94;;;-3.42;73.39
70072;BME280;57434;42.794;23.302;2023-02-14T00:52:17;97084.34;;;-3.25;73.04
70072;BME280;57434;42.794;23.302;2023-02-14T00:53:18;97080.22;;;-3.12;72.79
70072;BME280;57434;42.794;23.302;2023-02-14T00:54:20;97095.72;;;-3.00;72.72
70072;BME280;57434;42.794;23.302;2023-02-14T00:55:22;97079.38;;;-3.16;72.31
70072;BME280;57434;42.794;23.302;2023-02-14T00:56:24;97099.47;;;-2.86;72.43
70072;BME280;57434;42.794;23.302;2023-02-14T00:57:26;97084.94;;;-3.13;72.13
70072;BME280;57434;42.794;23.302;2023-02-14T00:58:28;97093.63;;;-3.33;72.83
70072;BME280;57434;42.794;23.302;2023-02-14T00:59:30;97076.13;;;-3.48;73.09
70072;BME280;57434;42.794;23.302;2023-02-14T01:00:31;97099.28;;;-3.46;73.47
70072;BME280;57434;42.794;23.302;2023-02-14T01:01:34;96932.44;;;-4.35;73.48
70072;BME280;57434;42.794;23.302;2023-02-14T01:02:35;97063.59;;;-3.46;73.62
70072;BME280;57434;42.794;23.302;2023-02-14T01:03:38;97030.75;;;-3.65;73.69
70072;BME280;57434;42.794;23.302;2023-02-14T01:04:39;97055.50;;;-3.39;73.72
70072;BME280;57434;42.794;23.302;2023-02-14T01:05:41;97047.16;;;-3.46;73.67
70072;BME280;57434;42.794;23.302;2023-02-14T01:06:43;97092.03;;;-3.34;73.86
70072;BME280;57434;42.794;23.302;2023-02-14T01:07:45;97076.13;;;-3.48;73.61
70072;BME280;57434;42.794;23.302;2023-02-14T01:08:47;97069.09;;;-3.46;73.57
70072;BME280;57434;42.794;23.302;2023-02-14T01:09:48;97062.00;;;-3.50;73.72
70072;BME280;57434;42.794;23.302;2023-02-14T01:10:51;97085.16;;;-3.48;73.93
70072;BME280;57434;42.794;23.302;2023-02-14T01:11:52;97033.06;;;-3.67;73.94
70072;BME280;57434;42.794;23.302;2023-02-14T01:12:54;97010.13;;;-3.82;74.02
70072;BME280;57434;42.794;23.302;2023-02-14T01:13:57;97074.66;;;-3.42;73.68
70072;BME280;57434;42.794;23.302;2023-02-14T01:14:59;97068.69;;;-3.48;73.62
70072;BME280;57434;42.794;23.302;2023-02-14T01:16:05;97071.69;;;-3.07;73.37
70072;BME280;57434;42.794;23.302;2023-02-14T01:17:08;97078.13;;;-3.22;73.20
70072;BME280;57434;42.794;23.302;2023-02-14T01:18:10;97066.78;;;-3.21;73.36
70072;BME280;57434;42.794;23.302;2023-02-14T01:19:12;97058.50;;;-3.24;73.26
70072;BME280;57434;42.794;23.302;2023-02-14T01:20:14;97066.19;;;-3.33;73.45
70072;BME280;57434;42.794;23.302;2023-02-14T01:21:21;97080.84;;;-3.49;74.47
70072;BME280;57434;42.794;23.302;2023-02-14T01:22:23;97028.09;;;-3.84;75.98
70072;BME280;57434;42.794;23.302;2023-02-14T01:23:25;97070.69;;;-3.45;76.01
70072;BME280;57434;42.794;23.302;2023-02-14T01:24:27;97058.06;;;-3.26;75.61
70072;BME280;57434;42.794;23.302;2023-02-14T01:25:29;96901.63;;;-4.28;75.00
70072;BME280;57434;42.794;23.302;2023-02-14T01:26:31;97072.09;;;-3.31;75.27
70072;BME280;57434;42.794;23.302;2023-02-14T01:27:33;97044.53;;;-3.39;75.34
70072;BME280;57434;42.794;23.302;2023-02-14T01:28:36;96878.75;;;-4.39;75.30
70072;BME280;57434;42.794;23.302;2023-02-14T01:29:38;97041.72;;;-3.19;75.05
70072;BME280;57434;42.794;23.302;2023-02-14T01:30:39;97065.88;;;-3.02;74.92
70072;BME280;57434;42.794;23.302;2023-02-14T01:31:41;97061.56;;;-3.03;74.95
70072;BME280;57434;42.794;23.302;2023-02-14T01:32:44;97061.50;;;-3.07;75.45
70072;BME280;57434;42.794;23.302;2023-02-14T01:33:47;97041.81;;;-3.12;75.56
70072;BME280;57434;42.794;23.302;2023-02-14T01:34:49;97044.53;;;-3.12;75.16
70072;BME280;57434;42.794;23.302;2023-02-14T01:35:51;97036.47;;;-3.01;74.80
70072;BME280;57434;42.794;23.302;2023-02-14T01:36:52;96944.59;;;-3.64;75.10
70072;BME280;57434;42.794;23.302;2023-02-14T01:37:54;97070.94;;;-3.04;75.50
70072;BME280;57434;42.794;23.302;2023-02-14T01:38:58;96949.03;;;-3.56;75.24
70072;BME280;57434;42.794;23.302;2023-02-14T01:40:01;97038.19;;;-2.93;75.17
70072;BME280;57434;42.794;23.302;2023-02-14T01:41:03;97028.78;;;-2.92;75.01
70072;BME280;57434;42.794;23.302;2023-02-14T01:42:04;97050.03;;;-2.86;74.97
70072;BME280;57434;42.794;23.302;2023-02-14T01:43:14;97050.03;;;-2.86;74.83
70072;BME280;57434;42.794;23.302;2023-02-14T01:45:21;97041.31;;;-2.91;75.10
70072;BME280;57434;42.794;23.302;2023-02-14T01:46:27;97039.41;;;-2.87;74.88
70072;BME280;57434;42.794;23.302;2023-02-14T01:47:34;97023.84;;;-3.06;74.71
70072;BME280;57434;42.794;23.302;2023-02-14T01:48:37;97028.34;;;-2.94;74.72
70072;BME280;57434;42.794;23.302;2023-02-14T01:49:50;97040.06;;;-3.24;75.06
70072;BME280;57434;42.794;23.302;2023-02-14T01:50:53;97029.03;;;-3.01;75.03
70072;BME280;57434;42.794;23.302;2023-02-14T01:52:29;96982.50;;;-3.20;74.87
70072;BME280;57434;42.794;23.302;2023-02-14T01:53:33;96990.75;;;-3.43;75.08
70072;BME280;57434;42.794;23.302;2023-02-14T01:54:47;97038.31;;;-2.83;74.71
70072;BME280;57434;42.794;23.302;2023-02-14T01:55:58;97047.47;;;-3.01;74.73
70072;BME280;57434;42.794;23.302;2023-02-14T01:57:06;97033.19;;;-3.11;75.08
70072;BME280;57434;42.794;23.302;2023-02-14T01:58:17;96966.63;;;-3.57;75.30
70072;BME280;57434;42.794;23.302;2023-02-14T01:59:21;97047.41;;;-3.31;75.81
70072;BME280;57434;42.794;23.302;2023-02-14T02:00:24;97051.84;;;-3.23;75.88
70072;BME280;57434;42.794;23.302;2023-02-14T02:01:27;97004.44;;;-3.69;75.81
70072;BME280;57434;42.794;23.302;2023-02-14T02:02:30;97025.50;;;-3.28;75.67
70072;BME280;57434;42.794;23.302;2023-02-14T02:04:41;97011.88;;;-3.47;75.22
70072;BME280;57434;42.794;23.302;2023-02-14T02:05:47;97031.66;;;-3.34;75.33
70072;BME280;57434;42.794;23.302;2023-02-14T02:06:59;97061.75;;;-3.15;75.08
70072;BME280;57434;42.794;23.302;2023-02-14T02:08:02;97027.44;;;-3.28;75.10
70072;BME280;57434;42.794;23.302;2023-02-14T02:09:42;96992.81;;;-3.36;75.20
70072;BME280;57434;42.794;23.302;2023-02-14T02:10:41;97018.78;;;-3.30;75.05
70072;BME280;57434;42.794;23.302;2023-02-14T02:11:43;97031.97;;;-2.87;74.99
70072;BME280;57434;42.794;23.302;2023-02-14T02:12:47;97008.00;;;-2.90;74.95
70072;BME280;57434;42.794;23.302;2023-02-14T02:13:50;97022.44;;;-2.96;74.71
70072;BME280;57434;42.794;23.302;2023-02-14T02:14:54;97019.94;;;-3.05;74.74
70072;BME280;57434;42.794;23.302;2023-02-14T02:16:09;97016.22;;;-3.20;75.22
70072;BME280;57434;42.794;23.302;2023-02-14T02:17:31;96989.94;;;-3.21;76.07
70072;BME280;57434;42.794;23.302;2023-02-14T02:18:57;97019.69;;;-2.96;76.16
70072;BME280;57434;42.794;23.302;2023-02-14T02:23:44;96982.84;;;-2.95;74.74
70072;BME280;57434;42.794;23.302;2023-02-14T02:38:45;96993.97;;;-3.11;75.99
70072;BME280;57434;42.794;23.302;2023-02-14T02:39:54;96994.88;;;-3.03;76.00
70072;BME280;57434;42.794;23.302;2023-02-14T02:42:00;97029.16;;;-2.90;75.41
70072;BME280;57434;42.794;23.302;2023-02-14T02:47:24;96823.72;;;-4.31;75.30
70072;BME280;57434;42.794;23.302;2023-02-14T02:48:34;96991.47;;;-3.23;75.64
70072;BME280;57434;42.794;23.302;2023-02-14T02:49:57;96999.28;;;-3.25;75.50
70072;BME280;57434;42.794;23.302;2023-02-14T02:51:06;96938.75;;;-3.85;75.53
70072;BME280;57434;42.794;23.302;2023-02-14T02:52:20;96989.09;;;-3.74;76.06
70072;BME280;57434;42.794;23.302;2023-02-14T02:53:41;96932.38;;;-4.16;76.22
70072;BME280;57434;42.794;23.302;2023-02-14T02:54:51;96996.69;;;-3.64;76.11
70072;BME280;57434;42.794;23.302;2023-02-14T02:57:14;96997.66;;;-3.53;75.49
70072;BME280;57434;42.794;23.302;2023-02-14T02:58:21;97001.16;;;-3.56;75.66
70072;BME280;57434;42.794;23.302;2023-02-14T02:59:28;96987.13;;;-3.51;75.69
70072;BME280;57434;42.794;23.302;2023-02-14T03:00:31;96983.44;;;-3.35;75.16
70072;BME280;57434;42.794;23.302;2023-02-14T03:01:35;96927.13;;;-3.79;74.97
70072;BME280;57434;42.794;23.302;2023-02-14T03:02:42;96875.41;;;-4.29;74.93
70072;BME280;57434;42.794;23.302;2023-02-14T03:03:47;96939.31;;;-3.76;74.75
70072;BME280;57434;42.794;23.302;2023-02-14T03:04:54;96974.81;;;-3.60;74.41
70072;BME280;57434;42.794;23.302;2023-02-14T03:05:57;97024.19;;;-3.60;74.29
70072;BME280;57434;42.794;23.302;2023-02-14T03:06:59;96945.59;;;-3.98;74.56
70072;BME280;57434;42.794;23.302;2023-02-14T03:08:03;96854.44;;;-4.64;74.65
70072;BME280;57434;42.794;23.302;2023-02-14T03:10:23;96892.50;;;-4.36;74.34
70072;BME280;57434;42.794;23.302;2023-02-14T03:11:25;96998.41;;;-3.79;74.56
70072;BME280;57434;42.794;23.302;2023-02-14T03:14:24;96840.84;;;-4.80;74.50
70072;BME280;57434;42.794;23.302;2023-02-14T03:16:12;96980.13;;;-3.94;75.38
70072;BME280;57434;42.794;23.302;2023-02-14T03:19:07;97007.69;;;-3.87;75.77
70072;BME280;57434;42.794;23.302;2023-02-14T03:20:21;96984.44;;;-3.93;76.14
70072;BME280;57434;42.794;23.302;2023-02-14T03:22:52;96924.41;;;-4.01;75.80
70072;BME280;57434;42.794;23.302;2023-02-14T03:24:14;96998.53;;;-3.72;75.58
70072;BME280;57434;42.794;23.302;2023-02-14T03:26:27;96955.94;;;-3.88;75.38
70072;BME280;57434;42.794;23.302;2023-02-14T03:27:40;96960.41;;;-3.80;75.29
70072;BME280;57434;42.794;23.302;2023-02-14T03:30:28;96963.63;;;-3.97;75.30
70072;BME280;57434;42.794;23.302;2023-02-14T03:31:54;96979.63;;;-3.99;75.55
70072;BME280;57434;42.794;23.302;2023-02-14T03:33:03;96969.59;;;-4.15;75.63
70072;BME280;57434;42.794;23.302;2023-02-14T03:34:12;96960.88;;;-4.20;75.74
70072;BME280;57434;42.794;23.302;2023-02-14T03:35:26;96996.34;;;-4.08;76.11
70072;BME280;57434;42.794;23.302;2023-02-14T03:37:42;96999.59;;;-4.22;75.91
70072;BME280;57434;42.794;23.302;2023-02-14T03:39:09;96965.41;;;-4.28;75.96
70072;BME280;57434;42.794;23.302;2023-02-14T03:40:21;96970.25;;;-4.21;75.89
70072;BME280;57434;42.794;23.302;2023-02-14T03:41:28;96956.66;;;-4.37;75.80
70072;BME280;57434;42.794;23.302;2023-02-14T03:42:39;96963.53;;;-4.24;75.54
70072;BME280;57434;42.794;23.302;2023-02-14T03:43:50;96957.19;;;-4.09;75.39
70072;BME280;57434;42.794;23.302;2023-02-14T03:44:54;96950.91;;;-4.09;75.12
70072;BME280;57434;42.794;23.302;2023-02-14T03:47:17;96964.25;;;-4.08;75.85
70072;BME280;57434;42.794;23.302;2023-02-14T03:48:22;96951.56;;;-3.93;75.59
70072;BME280;57434;42.794;23.302;2023-02-14T03:49:30;96950.81;;;-3.90;75.90
70072;BME280;57434;42.794;23.302;2023-02-14T03:50:37;96956.19;;;-3.74;75.85
70072;BME280;57434;42.794;23.302;2023-02-14T03:51:44;96951.31;;;-3.84;75.80
70072;BME280;57434;42.794;23.302;2023-02-14T03:52:50;96931.63;;;-3.90;75.77
70072;BME280;57434;42.794;23.302;2023-02-14T03:53:56;96921.69;;;-3.98;75.67
70072;BME280;57434;42.794;23.302;2023-02-14T03:55:01;96930.53;;;-3.85;75.22
70072;BME280;57434;42.794;23.302;2023-02-14T03:58:41;96933.72;;;-3.83;75.70
70072;BME280;57434;42.794;23.302;2023-02-14T03:59:44;96845.50;;;-4.38;75.62
70072;BME280;57434;42.794;23.302;2023-02-14T04:00:47;96937.31;;;-3.79;75.36
70072;BME280;57434;42.794;23.302;2023-02-14T04:02:05;96973.03;;;-3.72;75.39
70072;BME280;57434;42.794;23.302;2023-02-14T04:03:10;96784.31;;;-5.14;75.00
70072;BME280;57434;42.794;23.302;2023-02-14T04:04:17;96922.44;;;-3.78;75.17
70072;BME280;57434;42.794;23.302;2023-02-14T04:05:23;96975.28;;;-3.55;75.00
70072;BME280;57434;42.794;23.302;2023-02-14T04:06:25;96941.41;;;-3.66;74.45
70072;BME280;57434;42.794;23.302;2023-02-14T04:07:27;96943.72;;;-3.68;74.70
70072;BME280;57434;42.794;23.302;2023-02-14T04:08:29;96943.03;;;-3.88;74.88
70072;BME280;57434;42.794;23.302;2023-02-14T04:09:31;96942.84;;;-3.98;74.89
70072;BME280;57434;42.794;23.302;2023-02-14T04:10:33;96946.56;;;-3.87;74.94
70072;BME280;57434;42.794;23.302;2023-02-14T04:11:35;96930.56;;;-4.08;75.01
70072;BME280;57434;42.794;23.302;2023-02-14T04:12:37;96934.75;;;-4.14;75.13
70072;BME280;57434;42.794;23.302;2023-02-14T04:13:39;96904.38;;;-4.28;75.56
70072;BME280;57434;42.794;23.302;2023-02-14T04:14:41;96931.84;;;-4.02;75.81
70072;BME280;57434;42.794;23.302;2023-02-14T04:15:43;96812.56;;;-4.87;75.38
70072;BME280;57434;42.794;23.302;2023-02-14T04:16:45;96941.88;;;-4.10;75.22
70072;BME280;57434;42.794;23.302;2023-02-14T04:17:46;96937.25;;;-4.05;75.31
70072;BME280;57434;42.794;23.302;2023-02-14T04:18:48;96913.06;;;-4.46;74.88
70072;BME280;57434;42.794;23.302;2023-02-14T04:19:50;96931.72;;;-4.32;74.87
70072;BME280;57434;42.794;23.302;2023-02-14T04:20:52;96917.50;;;-4.37;75.17
70072;BME280;57434;42.794;23.302;2023-02-14T04:21:53;96931.72;;;-4.32;74.63
70072;BME280;57434;42.794;23.302;2023-02-14T04:22:55;96713.28;;;-5.72;74.51
70072;BME280;57434;42.794;23.302;2023-02-14T04:23:57;96929.44;;;-4.26;74.44
70072;BME280;57434;42.794;23.302;2023-02-14T04:24:59;96929.13;;;-4.44;74.06
70072;BME280;57434;42.794;23.302;2023-02-14T04:26:01;96926.81;;;-4.42;73.80
70072;BME280;57434;42.794;23.302;2023-02-14T04:27:03;96924.72;;;-4.91;74.45
70072;BME280;57434;42.794;23.302;2023-02-14T04:28:05;96928.59;;;-4.72;74.99
70072;BME280;57434;42.794;23.302;2023-02-14T04:29:07;96922.00;;;-4.91;75.00
70072;BME280;57434;42.794;23.302;2023-02-14T04:30:09;96921.75;;;-5.01;75.17
70072;BME280;57434;42.794;23.302;2023-02-14T04:31:11;96910.81;;;-5.01;75.42
70072;BME280;57434;42.794;23.302;2023-02-14T04:32:19;96763.84;;;-5.82;75.37
70072;BME280;57434;42.794;23.302;2023-02-14T04:33:21;96748.34;;;-6.13;75.92
70072;BME280;57434;42.794;23.302;2023-02-14T04:34:23;96930.06;;;-4.98;76.26
70072;BME280;57434;42.794;23.302;2023-02-14T04:35:25;96893.47;;;-5.28;76.45
70072;BME280;57434;42.794;23.302;2023-02-14T04:36:26;96756.31;;;-5.69;76.72
70072;BME280;57434;42.794;23.302;2023-02-14T04:37:28;96864.28;;;-5.01;76.76
70072;BME280;57434;42.794;23.302;2023-02-14T04:38:31;96819.91;;;-5.14;76.28
70072;BME280;57434;42.794;23.302;2023-02-14T04:39:33;96784.13;;;-5.44;75.93
70072;BME280;57434;42.794;23.302;2023-02-14T04:40:35;96907.13;;;-4.70;75.93
70072;BME280;57434;42.794;23.302;2023-02-14T04:41:36;96859.81;;;-5.10;76.19
70072;BME280;57434;42.794;23.302;2023-02-14T04:42:38;96853.63;;;-4.87;75.83
70072;BME280;57434;42.794;23.302;2023-02-14T04:43:40;96905.94;;;-4.50;75.84
70072;BME280;57434;42.794;23.302;2023-02-14T04:44:42;96914.47;;;-4.32;75.79
70072;BME280;57434;42.794;23.302;2023-02-14T04:45:44;96763.31;;;-5.29;75.54
70072;BME280;57434;42.794;23.302;2023-02-14T04:46:46;96879.88;;;-4.41;75.40
70072;BME280;57434;42.794;23.302;2023-02-14T04:47:48;96935.47;;;-4.17;75.25
70072;BME280;57434;42.794;23.302;2023-02-14T04:48:50;96903.75;;;-4.41;75.02
70072;BME280;57434;42.794;23.302;2023-02-14T04:49:51;96876.06;;;-4.59;74.91
70072;BME280;57434;42.794;23.302;2023-02-14T04:50:54;96901.88;;;-4.37;75.15
70072;BME280;57434;42.794;23.302;2023-02-14T04:51:56;96931.63;;;-4.58;74.84
70072;BME280;57434;42.794;23.302;2023-02-14T04:52:57;96909.94;;;-4.67;75.14
70072;BME280;57434;42.794;23.302;2023-02-14T04:53:59;96761.63;;;-5.76;75.15
70072;BME280;57434;42.794;23.302;2023-02-14T04:55:01;96866.47;;;-5.11;75.26
70072;BME280;57434;42.794;23.302;2023-02-14T04:56:03;96860.94;;;-5.14;75.14
70072;BME280;57434;42.794;23.302;2023-02-14T04:57:05;96912.63;;;-4.90;75.28
70072;BME280;57434;42.794;23.302;2023-02-14T04:58:07;96876.03;;;-5.20;75.05
70072;BME280;57434;42.794;23.302;2023-02-14T04:59:09;96844.38;;;-5.40;75.21
70072;BME280;57434;42.794;23.302;2023-02-14T05:00:11;96807.53;;;-5.66;74.87
70072;BME280;57434;42.794;23.302;2023-02-14T05:01:13;96901.75;;;-5.05;74.91
70072;BME280;57434;42.794;23.302;2023-02-14T05:02:15;96910.91;;;-4.98;74.96
70072;BME280;57434;42.794;23.302;2023-02-14T05:03:16;96820.03;;;-5.65;75.00
70072;BME280;57434;42.794;23.302;2023-02-14T05:04:19;96778.47;;;-5.74;75.23
70072;BME280;57434;42.794;23.302;2023-02-14T05:05:21;96834.22;;;-5.40;74.91
70072;BME280;57434;42.794;23.302;2023-02-14T05:06:22;96816.59;;;-5.43;75.22
70072;BME280;57434;42.794;23.302;2023-02-14T05:07:24;96898.28;;;-5.02;74.98
70072;BME280;57434;42.794;23.302;2023-02-14T05:08:26;96908.06;;;-4.82;75.01
70072;BME280;57434;42.794;23.302;2023-02-14T05:09:28;96871.72;;;-5.02;74.83
70072;BME280;57434;42.794;23.302;2023-02-14T05:10:29;96869.25;;;-5.07;74.85
70072;BME280;57434;42.794;23.302;2023-02-14T05:11:32;96892.59;;;-4.94;74.50
70072;BME280;57434;42.794;23.302;2023-02-14T05:12:34;96751.16;;;-5.90;74.43
70072;BME280;57434;42.794;23.302;2023-02-14T05:13:36;96901.06;;;-4.80;74.44
70072;BME280;57434;42.794;23.302;2023-02-14T05:14:37;96853.22;;;-5.28;74.12
70072;BME280;57434;42.794;23.302;2023-02-14T05:15:39;96778.03;;;-5.76;74.25
70072;BME280;57434;42.794;23.302;2023-02-14T05:16:41;96876.84;;;-5.20;74.28
70072;BME280;57434;42.794;23.302;2023-02-14T05:17:43;96828.59;;;-5.47;74.23
70072;BME280;57434;42.794;23.302;2023-02-14T05:18:45;96904.84;;;-4.88;74.40
70072;BME280;57434;42.794;23.302;2023-02-14T05:19:47;96877.19;;;-5.02;74.55
70072;BME280;57434;42.794;23.302;2023-02-14T05:20:50;96900.28;;;-4.80;74.30
70072;BME280;57434;42.794;23.302;2023-02-14T05:21:52;96885.63;;;-4.91;74.37
70072;BME280;57434;42.794;23.302;2023-02-14T05:22:54;96821.41;;;-5.17;74.51
70072;BME280;57434;42.794;23.302;2023-02-14T05:23:56;96906.03;;;-4.66;74.45
70072;BME280;57434;42.794;23.302;2023-02-14T05:24:58;96733.00;;;-5.82;74.37
70072;BME280;57434;42.794;23.302;2023-02-14T05:25:59;96870.19;;;-4.99;74.97
70072;BME280;57434;42.794;23.302;2023-02-14T05:27:01;96916.78;;;-4.34;76.09
70072;BME280;57434;42.794;23.302;2023-02-14T05:28:03;96858.91;;;-4.33;77.39
70072;BME280;57434;42.794;23.302;2023-02-14T05:29:05;96884.09;;;-3.75;80.36
70072;BME280;57434;42.794;23.302;2023-02-14T05:30:07;96899.41;;;-3.44;80.70
70072;BME280;57434;42.794;23.302;2023-02-14T05:31:09;96903.84;;;-3.06;81.75
70072;BME280;57434;42.794;23.302;2023-02-14T05:32:11;96737.47;;;-3.84;82.39
70072;BME280;57434;42.794;23.302;2023-02-14T05:33:13;96908.81;;;-2.51;82.92
70072;BME280;57434;42.794;23.302;2023-02-14T05:34:15;96907.09;;;-2.26;82.95
70072;BME280;57434;42.794;23.302;2023-02-14T05:35:17;96905.66;;;-2.09;82.77
70072;BME280;57434;42.794;23.302;2023-02-14T05:36:18;96863.75;;;-2.43;82.50
70072;BME280;57434;42.794;23.302;2023-02-14T05:37:20;96873.94;;;-1.99;82.32
70072;BME280;57434;42.794;23.302;2023-02-14T05:38:22;96879.91;;;-1.90;81.70
70072;BME280;57434;42.794;23.302;2023-02-14T05:39:24;96898.78;;;-1.89;81.40
70072;BME280;57434;42.794;23.302;2023-02-14T05:40:26;96743.53;;;-2.53;80.98
70072;BME280;57434;42.794;23.302;2023-02-14T05:41:28;96849.38;;;-1.75;80.33
70072;BME280;57434;42.794;23.302;2023-02-14T05:42:29;96817.84;;;-1.88;79.75
70072;BME280;57434;42.794;23.302;2023-02-14T05:43:31;96881.09;;;-1.33;79.28
70072;BME280;57434;42.794;23.302;2023-02-14T05:44:33;96836.41;;;-1.74;78.88
70072;BME280;57434;42.794;23.302;2023-02-14T05:45:35;96884.34;;;-1.13;78.62
70072;BME280;57434;42.794;23.302;2023-02-14T05:46:37;96850.03;;;-1.33;77.91
70072;BME280;57434;42.794;23.302;2023-02-14T05:47:39;96896.25;;;-0.88;77.58
70072;BME280;57434;42.794;23.302;2023-02-14T05:48:41;96767.75;;;-1.49;76.79
70072;BME280;57434;42.794;23.302;2023-02-14T05:49:42;96844.31;;;-0.82;76.27
70072;BME280;57434;42.794;23.302;2023-02-14T05:50:44;96887.72;;;-0.51;75.86
70072;BME280;57434;42.794;23.302;2023-02-14T05:51:46;96774.16;;;-1.17;75.62
70072;BME280;57434;42.794;23.302;2023-02-14T05:52:48;96856.16;;;-0.75;75.78
70072;BME280;57434;42.794;23.302;2023-02-14T05:53:50;96755.13;;;-1.61;75.97
70072;BME280;57434;42.794;23.302;2023-02-14T05:54:52;96885.97;;;-1.02;77.27
70072;BME280;57434;42.794;23.302;2023-02-14T05:55:53;96870.28;;;-0.87;77.58
70072;BME280;57434;42.794;23.302;2023-02-14T05:56:55;96885.75;;;-0.50;77.47
70072;BME280;57434;42.794;23.302;2023-02-14T05:57:57;96855.00;;;-0.59;76.96
70072;BME280;57434;42.794;23.302;2023-02-14T05:58:59;96892.50;;;-0.34;76.67
70072;BME280;57434;42.794;23.302;2023-02-14T06:00:01;96890.88;;;-0.45;76.68
70072;BME280;57434;42.794;23.302;2023-02-14T06:01:03;96887.34;;;-0.49;77.17
70072;BME280;57434;42.794;23.302;2023-02-14T06:02:05;96887.72;;;-0.54;77.58
70072;BME280;57434;42.794;23.302;2023-02-14T06:03:07;96885.31;;;-0.63;77.95
70072;BME280;57434;42.794;23.302;2023-02-14T06:04:09;96811.56;;;-1.12;78.07
70072;BME280;57434;42.794;23.302;2023-02-14T06:05:11;96776.50;;;-1.29;78.16
70072;BME280;57434;42.794;23.302;2023-02-14T06:06:12;96846.31;;;-0.79;78.53
70072;BME280;57434;42.794;23.302;2023-02-14T06:07:14;96890.50;;;-0.47;78.45
70072;BME280;57434;42.794;23.302;2023-02-14T06:08:16;96901.53;;;-0.47;78.30
70072;BME280;57434;42.794;23.302;2023-02-14T06:09:18;96738.63;;;-1.50;78.15
70072;BME280;57434;42.794;23.302;2023-02-14T06:10:22;96829.00;;;-0.76;78.40
70072;BME280;57434;42.794;23.302;2023-02-14T06:11:24;96898.78;;;-0.33;78.37
70072;BME280;57434;42.794;23.302;2023-02-14T06:12:26;96914.56;;;-0.30;78.19
70072;BME280;57434;42.794;23.302;2023-02-14T06:13:27;96870.81;;;-0.39;78.02
70072;BME280;57434;42.794;23.302;2023-02-14T06:14:29;96896.84;;;-0.25;77.98
70072;BME280;57434;42.794;23.302;2023-02-14T06:15:31;96900.41;;;-0.11;77.91